Time;durP1;ratioP1;P1;durP2;ratioP2;P2;SDS_P1;SDS_P2;PMS_P1;PMS_P2;Temp;Humidity;BMP_temperature;BMP_pressure;BME280_temperature;BME280_humidity;BME280_pressure;Samples;Min_cycle;Max_cycle;Signal;HPM_P1;HPM_P2
2022/12/18 00:01:37;;;;;;;7.30;3.78;;;-3.90;99.90;;;-4.11;nan;101996.88;5032108;28;20226;-64
2022/12/18 00:04:07;;;;;;;12.07;5.72;;;-3.90;99.90;;;-3.98;nan;102002.94;5033069;28;20207;-63
2022/12/18 00:06:35;;;;;;;12.18;5.45;;;-3.80;99.90;;;-3.95;nan;102005.53;5031988;28;20211;-64
2022/12/18 00:09:03;;;;;;;20.80;7.25;;;-3.80;99.90;;;-4.10;nan;102005.38;5033250;28;20548;-64
2022/12/18 00:11:31;;;;;;;14.95;7.25;;;-3.80;99.90;;;-4.19;nan;101997.63;5033034;28;20243;-64
2022/12/18 00:13:59;;;;;;;26.15;11.00;;;-3.90;99.90;;;-4.24;nan;101996.75;5014583;28;20221;-63
2022/12/18 00:16:28;;;;;;;24.05;10.35;;;-3.90;99.90;;;-4.31;nan;101984.78;5032345;28;20194;-63
2022/12/18 00:18:56;;;;;;;3.33;2.60;;;-4.00;99.90;;;-4.23;nan;101990.81;5032955;28;20625;-63
2022/12/18 00:21:23;;;;;;;26.27;10.68;;;-4.00;99.90;;;-4.31;nan;101983.09;5015306;28;20228;-63
2022/12/18 00:23:51;;;;;;;26.35;9.20;;;-4.00;99.90;;;-4.21;nan;101989.13;5033095;28;20218;-64
2022/12/18 00:26:25;;;;;;;12.98;6.63;;;-4.00;99.90;;;-4.34;nan;101994.94;5032935;28;20208;-60
2022/12/18 00:28:53;;;;;;;22.95;9.25;;;-4.00;99.90;;;-4.37;nan;102005.97;5012701;28;20242;-64
2022/12/18 00:31:23;;;;;;;14.75;5.80;;;-4.00;99.90;;;-4.27;nan;102009.47;5025830;28;20608;-63
2022/12/18 00:33:50;;;;;;;18.75;9.05;;;-4.00;99.90;;;-4.36;nan;101999.16;5012509;28;20209;-64
2022/12/18 00:36:26;;;;;;;19.27;7.60;;;-4.10;99.90;;;-4.36;nan;102010.22;5029584;28;20253;-63
2022/12/18 00:38:55;;;;;;;14.95;5.43;;;-4.10;99.90;;;-4.35;nan;102011.09;5031588;28;20423;-63
2022/12/18 00:44:13;;;;;;;18.23;7.60;;;-4.10;99.90;;;-4.41;nan;102021.22;5031432;28;20210;-63
2022/12/18 00:46:42;;;;;;;16.88;7.60;;;-4.10;99.90;;;-4.45;nan;102014.38;5027981;28;20269;-64
2022/12/18 00:49:09;;;;;;;12.38;5.53;;;-4.10;99.90;;;-4.34;nan;102020.41;5030626;28;20603;-64
2022/12/18 00:51:36;;;;;;;16.13;7.38;;;-4.10;99.90;;;-4.21;nan;102017.16;5031589;28;20720;-64
2022/12/18 00:54:03;;;;;;;17.80;8.13;;;-4.10;99.90;;;-4.37;nan;102016.16;5031608;28;20684;-64
2022/12/18 00:56:30;;;;;;;17.40;8.05;;;-4.10;99.90;;;-4.68;nan;102020.91;5032030;28;20195;-63
2022/12/18 00:58:57;;;;;;;7.45;3.22;;;-4.20;99.90;;;-4.53;nan;102016.81;5032061;28;20215;-65
2022/12/18 01:01:24;;;;;;;24.77;12.75;;;-4.20;99.90;;;-4.48;nan;102015.19;5031139;28;20662;-63
2022/12/18 01:03:51;;;;;;;18.73;7.18;;;-4.20;99.90;;;-4.66;nan;102009.88;5032051;28;20476;-63
2022/12/18 01:06:18;;;;;;;14.77;6.38;;;-4.30;99.90;;;-4.63;nan;101999.72;5031361;28;20204;-64
2022/12/18 01:08:45;;;;;;;13.77;5.40;;;-4.30;99.90;;;-4.47;nan;101993.97;5032406;28;20616;-64
2022/12/18 01:11:18;;;;;;;16.42;7.30;;;-4.30;99.90;;;-4.63;nan;102009.91;5030355;28;20222;-62
2022/12/18 01:13:46;;;;;;;3.28;2.30;;;-4.30;99.90;;;-4.58;nan;102002.34;5031568;28;20192;-64
2022/12/18 01:16:15;;;;;;;20.70;9.48;;;-4.30;99.90;;;-4.47;nan;101995.66;5030467;28;20227;-63
2022/12/18 01:18:42;;;;;;;19.27;8.40;;;-4.30;99.90;;;-4.53;nan;102004.09;5031240;28;20206;-64
2022/12/18 01:21:15;;;;;;;14.13;7.05;;;-4.30;99.90;;;-4.45;nan;102009.28;5031329;28;20607;-63
2022/12/18 01:23:44;;;;;;;16.83;7.05;;;-4.30;99.90;;;-4.58;nan;102009.97;5031223;28;20208;-65
2022/12/18 01:26:15;;;;;;;17.50;7.85;;;-4.30;99.90;;;-4.46;nan;102012.66;5014357;28;20204;-63
2022/12/18 01:28:43;;;;;;;21.15;11.13;;;-4.20;99.90;;;-4.53;nan;102016.81;5025180;28;20236;-64
2022/12/18 01:31:21;;;;;;;17.38;6.95;;;-4.30;99.90;;;-4.56;nan;102018.50;5024979;28;20223;-61
2022/12/18 01:33:50;;;;;;;24.10;8.52;;;-4.30;99.90;;;-4.54;nan;102011.72;5033598;28;20214;-64
2022/12/18 01:36:23;;;;;;;16.33;8.15;;;-4.30;99.90;;;-4.66;nan;102004.78;5044743;28;20199;-65
2022/12/18 01:38:51;;;;;;;6.15;2.65;;;-4.30;99.90;;;-4.51;nan;102009.19;5014812;28;20238;-64
2022/12/18 01:41:25;;;;;;;23.55;9.70;;;-4.30;99.90;;;-4.59;nan;102011.66;5030300;28;20238;-63
2022/12/18 01:43:57;;;;;;;19.45;8.00;;;-4.30;99.90;;;-4.64;nan;102017.56;5025030;28;20207;-65
2022/12/18 01:46:26;;;;;;;23.70;9.20;;;-4.30;99.90;;;-4.74;nan;102014.03;5026183;28;20212;-65
2022/12/18 01:49:03;;;;;;;23.80;8.23;;;-4.40;99.90;;;-4.67;nan;102017.50;5012850;28;20222;-64
2022/12/18 01:51:30;;;;;;;10.63;4.10;;;-4.40;99.90;;;-4.52;nan;102017.69;5031439;28;20623;-63
2022/12/18 01:53:59;;;;;;;2.90;2.00;;;-4.30;99.90;;;-4.45;nan;102014.38;5032017;28;20196;-64
2022/12/18 01:56:26;;;;;;;18.50;9.10;;;-4.30;99.90;;;-4.68;nan;102019.19;5031347;28;20199;-64
2022/12/18 01:59:03;;;;;;;14.63;7.00;;;-4.30;99.90;;;-4.63;nan;102016.69;5026875;28;20215;-64
2022/12/18 02:01:32;;;;;;;11.38;4.80;;;-4.40;99.90;;;-4.69;nan;102030.22;5012381;28;20232;-64
2022/12/18 02:04:23;;;;;;;10.52;4.72;;;-4.40;99.90;;;-4.60;nan;102019.28;5029614;28;20206;-61
2022/12/18 02:07:14;;;;;;;13.32;6.57;;;-4.40;99.90;;;-4.70;nan;102008.13;5030338;28;20208;-64
2022/12/18 02:09:55;;;;;;;17.17;6.95;;;-4.40;99.90;;;-4.68;nan;102023.44;5029903;28;20359;-64
2022/12/18 02:12:33;;;;;;;22.58;7.95;;;-4.40;99.90;;;-4.79;nan;102041.97;5031168;28;20206;-63
2022/12/18 02:15:26;;;;;;;28.95;10.63;;;-4.50;99.90;;;-4.83;nan;102032.59;5013183;28;20207;-63
2022/12/18 02:18:08;;;;;;;6.20;3.08;;;-4.50;99.90;;;-4.84;nan;102041.06;5032050;28;20207;-66
2022/12/18 02:20:59;;;;;;;17.00;7.68;;;-4.50;99.90;;;-4.69;nan;102039.56;5030518;28;20629;-65
2022/12/18 02:23:56;;;;;;;27.05;12.38;;;-4.40;99.90;;;-4.84;nan;102033.44;4993576;28;20209;-65
2022/12/18 02:26:37;;;;;;;27.33;11.90;;;-4.40;99.90;;;-4.78;nan;102033.50;5003291;28;20200;-66
2022/12/18 02:29:24;;;;;;;21.65;8.02;;;-4.50;99.90;;;-5.05;nan;102024.66;5030321;28;20702;-65
2022/12/18 02:31:59;;;;;;;14.70;6.75;;;-4.50;99.90;;;-5.08;nan;102024.59;5030815;28;20222;-65
2022/12/18 02:34:31;;;;;;;5.57;2.70;;;-4.60;99.90;;;-4.85;nan;102021.53;5013817;28;20211;-65
2022/12/18 02:37:03;;;;;;;16.83;7.22;;;-4.60;99.90;;;-4.81;nan;101999.50;5013073;28;20207;-66
2022/12/18 02:39:32;;;;;;;16.42;6.22;;;-4.60;99.90;;;-4.81;nan;102005.44;5030511;28;20203;-65
2022/12/18 02:42:02;;;;;;;27.23;10.10;;;-4.50;99.90;;;-4.73;nan;102008.94;5013230;28;20231;-65
2022/12/18 02:44:29;;;;;;;23.27;8.13;;;-4.50;99.90;;;-4.72;nan;102004.72;5012841;28;20252;-66
2022/12/18 02:46:56;;;;;;;7.75;5.25;;;-4.50;99.90;;;-4.66;nan;102006.50;5030862;28;20218;-66
2022/12/18 02:49:43;;;;;;;5.40;2.95;;;-4.40;99.90;;;-4.71;nan;101991.16;5011847;28;20230;-65
2022/12/18 02:52:55;;;;;;;8.57;3.92;;;-4.40;99.90;;;-4.64;nan;101977.63;5043625;23;20243;-66
2022/12/18 02:56:04;;;;;;;7.03;4.43;;;-4.40;99.90;;;-4.51;nan;101992.22;5033890;28;20204;-66
2022/12/18 02:59:02;;;;;;;13.88;4.95;;;-4.40;99.90;;;-4.75;nan;102005.53;5024704;28;20210;-67
2022/12/18 03:01:58;;;;;;;5.15;3.75;;;-4.40;99.90;;;-4.75;nan;102010.63;5025182;28;20227;-66
2022/12/18 03:04:42;;;;;;;13.85;6.05;;;-4.50;99.90;;;-4.74;nan;102009.78;5011315;28;20230;-65
2022/12/18 03:07:23;;;;;;;11.85;5.63;;;-4.40;99.90;;;-4.57;nan;102016.75;5031803;28;20207;-65
2022/12/18 03:09:53;;;;;;;26.33;9.40;;;-4.40;99.90;;;-4.94;nan;102013.75;5014273;28;20594;-66
2022/12/18 03:12:35;;;;;;;14.70;6.95;;;-4.40;99.90;;;-4.79;nan;101998.69;5013616;28;20228;-65
2022/12/18 03:15:17;;;;;;;18.83;8.48;;;-4.50;99.90;;;-4.87;nan;101999.44;5025679;28;20675;-67
2022/12/18 03:17:56;;;;;;;10.57;6.15;;;-4.50;99.90;;;-4.75;nan;101982.59;5013070;28;20267;-67
2022/12/18 03:20:25;;;;;;;0.28;0.28;;;-4.50;99.90;;;-4.85;nan;101968.06;5032857;28;20207;-65
2022/12/18 03:23:04;;;;;;;14.23;5.97;;;-4.60;99.90;;;-4.79;nan;101975.78;4994409;28;20803;-67
2022/12/18 03:25:33;;;;;;;13.23;6.07;;;-4.50;99.90;;;-4.97;nan;102007.78;4995941;28;20286;-65
2022/12/18 03:28:03;;;;;;;13.52;5.95;;;-4.60;99.90;;;-4.76;nan;102008.91;5011317;28;20204;-65
2022/12/18 03:30:32;;;;;;;17.13;6.45;;;-4.60;99.90;;;-4.83;nan;102001.16;5010377;28;20230;-65
2022/12/18 03:33:27;;;;;;;28.73;10.23;;;-4.60;99.90;;;-4.95;nan;101996.81;5021203;28;20208;-65
2022/12/18 03:35:55;;;;;;;9.55;4.40;;;-4.60;99.90;;;-4.85;nan;102019.00;5016049;28;20210;-68
2022/12/18 03:38:22;;;;;;;1.48;1.40;;;-4.60;99.90;;;-4.78;nan;102010.59;5028895;28;20307;-65
2022/12/18 03:41:16;;;;;;;4.63;3.55;;;-4.60;99.90;;;-4.68;nan;102001.34;4986098;28;20360;-65
2022/12/18 03:44:10;;;;;;;12.88;6.68;;;-4.60;99.90;;;-4.84;nan;101996.94;5011774;28;20215;-65
2022/12/18 03:47:28;;;;;;;7.55;2.72;;;-4.50;99.90;;;-4.69;nan;101993.72;5003832;28;20210;-67
2022/12/18 03:50:17;;;;;;;5.07;3.35;;;-4.60;99.90;;;-4.71;nan;101998.78;5026124;28;20623;-65
2022/12/18 03:52:58;;;;;;;16.15;6.97;;;-4.60;99.90;;;-4.68;nan;102003.91;5013802;28;20297;-67
2022/12/18 03:55:28;;;;;;;8.65;3.95;;;-4.60;99.90;;;-4.80;nan;102008.88;4997719;28;20223;-66
2022/12/18 03:57:56;;;;;;;16.20;7.40;;;-4.60;99.90;;;-4.71;nan;102009.81;5012043;28;20556;-67
2022/12/18 04:00:23;;;;;;;11.82;7.15;;;-4.60;99.90;;;-4.72;nan;102010.66;5015078;28;20283;-67
2022/12/18 04:02:56;;;;;;;14.13;6.40;;;-4.60;99.90;;;-4.79;nan;102011.41;5028181;28;20227;-66
2022/12/18 04:05:25;;;;;;;17.60;8.10;;;-4.60;99.90;;;-4.82;nan;102020.72;5016979;28;20199;-66
2022/12/18 04:07:54;;;;;;;13.18;5.60;;;-4.60;99.90;;;-4.80;nan;102014.81;5016786;28;20211;-65
2022/12/18 04:10:22;;;;;;;4.65;3.35;;;-4.60;99.90;;;-4.77;nan;101999.56;5006708;28;20598;-65
2022/12/18 04:12:49;;;;;;;22.30;9.57;;;-4.60;99.90;;;-4.93;nan;102005.31;5034432;28;20780;-66
2022/12/18 04:15:16;;;;;;;18.85;8.00;;;-4.60;99.90;;;-5.02;nan;102009.41;5032070;28;20204;-66
2022/12/18 04:17:49;;;;;;;13.35;7.18;;;-4.70;99.90;;;-4.95;nan;102009.53;5035374;28;20200;-65
2022/12/18 04:20:16;;;;;;;12.05;5.30;;;-4.70;99.90;;;-4.89;nan;102004.50;5012978;28;20203;-66
2022/12/18 04:22:43;;;;;;;9.50;5.20;;;-4.70;99.90;;;-4.86;nan;101996.94;5017148;28;20289;-67
2022/12/18 04:25:13;;;;;;;9.20;4.40;;;-4.70;99.90;;;-4.87;nan;102005.38;5032395;28;20215;-66
2022/12/18 04:27:40;;;;;;;12.77;2.85;;;-4.70;99.90;;;-4.83;nan;101993.53;5015538;28;20663;-67
2022/12/18 04:30:08;;;;;;;20.60;8.85;;;-4.70;99.90;;;-4.91;nan;101980.72;5014526;28;20228;-66
2022/12/18 04:32:35;;;;;;;15.77;6.53;;;-4.70;99.90;;;-4.91;nan;101984.94;5023135;28;20226;-66
2022/12/18 04:35:04;;;;;;;8.07;4.65;;;-4.70;99.90;;;-4.86;nan;101979.09;5034032;28;20204;-67
2022/12/18 04:37:30;;;;;;;7.88;5.38;;;-4.70;99.90;;;-4.86;nan;101989.28;5016403;28;20207;-65
2022/12/18 04:39:57;;;;;;;10.05;4.13;;;-4.70;99.90;;;-4.82;nan;101990.16;5004121;28;20207;-65
2022/12/18 04:42:24;;;;;;;7.38;1.15;;;-4.70;99.90;;;-4.87;nan;102002.84;5029786;28;20253;-65
2022/12/18 04:44:51;;;;;;;5.78;3.55;;;-4.70;99.90;;;-4.84;nan;101994.38;5025635;28;20217;-66
2022/12/18 04:47:18;;;;;;;8.15;3.38;;;-4.70;99.90;;;-4.81;nan;101991.84;5016231;28;20199;-66
2022/12/18 04:49:45;;;;;;;2.38;1.63;;;-4.70;99.90;;;-4.81;nan;102002.91;5022404;28;20243;-65
2022/12/18 04:52:12;;;;;;;11.93;5.30;;;-4.70;99.90;;;-4.86;nan;102007.09;5015366;28;20240;-66
2022/12/18 04:54:39;;;;;;;1.75;0.95;;;-4.80;99.90;;;-4.94;nan;102008.69;5024490;28;20207;-64
2022/12/18 04:57:06;;;;;;;6.38;3.60;;;-4.80;99.90;;;-4.92;nan;102007.00;5014697;28;20218;-67
2022/12/18 04:59:33;;;;;;;6.93;3.70;;;-4.80;99.90;;;-4.95;nan;102006.97;5013389;28;20563;-65
2022/12/18 05:02:00;;;;;;;1.08;1.02;;;-4.80;99.90;;;-4.94;nan;102011.22;5024654;28;20238;-65
2022/12/18 05:04:27;;;;;;;1.70;1.30;;;-4.80;99.90;;;-5.08;nan;102014.44;5014710;28;20262;-66
2022/12/18 05:06:54;;;;;;;6.97;3.33;;;-4.90;99.90;;;-5.17;nan;102020.25;5014150;28;20280;-65
2022/12/18 05:09:21;;;;;;;2.25;2.05;;;-4.90;99.90;;;-5.18;nan;102017.69;5014706;28;20218;-66
2022/12/18 05:11:48;;;;;;;16.05;7.70;;;-4.90;99.90;;;-5.13;nan;102014.34;5013995;28;20229;-65
2022/12/18 05:14:15;;;;;;;12.45;4.47;;;-4.90;99.90;;;-5.16;nan;102016.88;5026373;28;20657;-66
2022/12/18 05:16:42;;;;;;;15.85;6.05;;;-4.90;99.90;;;-5.13;nan;102011.81;5033588;28;20199;-65
2022/12/18 05:19:09;;;;;;;12.35;6.32;;;-5.00;99.90;;;-5.09;nan;102008.47;5016902;28;20209;-66
2022/12/18 05:21:36;;;;;;;16.73;8.05;;;-5.00;99.90;;;-5.26;nan;102014.19;5014272;28;20270;-66
2022/12/18 05:24:03;;;;;;;10.38;4.85;;;-5.00;99.90;;;-5.20;nan;102019.34;5017110;28;20218;-67
2022/12/18 05:26:30;;;;;;;4.03;2.88;;;-5.00;99.90;;;-5.25;nan;102021.84;5014397;28;20212;-65
2022/12/18 05:28:57;;;;;;;17.33;7.32;;;-5.10;99.90;;;-5.45;nan;102028.31;5003597;28;20217;-66
2022/12/18 05:31:24;;;;;;;17.02;6.40;;;-5.10;99.90;;;-5.41;nan;102012.28;5029799;28;20265;-65
2022/12/18 05:33:51;;;;;;;6.13;3.17;;;-5.20;99.90;;;-5.33;nan;102020.00;5013749;28;20195;-65
2022/12/18 05:36:18;;;;;;;14.88;6.15;;;-5.10;99.90;;;-5.28;nan;102020.94;5015032;28;20264;-65
2022/12/18 05:38:45;;;;;;;23.98;9.27;;;-5.10;99.90;;;-5.39;nan;102012.28;5015748;28;20691;-65
2022/12/18 05:41:12;;;;;;;9.95;4.03;;;-5.10;99.90;;;-5.35;nan;102019.13;5014191;28;20231;-65
2022/12/18 05:43:40;;;;;;;11.25;5.55;;;-5.10;99.90;;;-5.31;nan;102014.13;5026656;28;20285;-67
2022/12/18 05:46:14;;;;;;;12.40;6.22;;;-5.10;99.90;;;-5.32;nan;102012.38;5022759;28;20218;-65
2022/12/18 05:48:42;;;;;;;13.82;6.72;;;-5.10;99.90;;;-5.29;nan;102003.94;5015833;28;20206;-67
2022/12/18 05:51:14;;;;;;;10.52;5.65;;;-5.10;99.90;;;-5.29;nan;102009.91;5024174;28;20234;-66
2022/12/18 05:53:42;;;;;;;6.85;3.50;;;-5.10;99.90;;;-5.28;nan;102013.31;5030963;28;20252;-65
2022/12/18 05:56:14;;;;;;;12.70;4.13;;;-5.10;99.90;;;-5.35;nan;102012.38;5025095;28;20211;-67
2022/12/18 05:58:42;;;;;;;13.43;5.75;;;-5.10;99.90;;;-5.40;nan;102015.66;5017776;28;20771;-66
2022/12/18 06:01:20;;;;;;;8.63;5.47;;;-5.10;99.90;;;-5.32;nan;102014.94;5024935;28;20654;-66
2022/12/18 06:03:47;;;;;;;3.90;2.85;;;-5.10;99.90;;;-5.29;nan;102020.09;5013238;28;20281;-67
2022/12/18 06:06:22;;;;;;;17.50;7.50;;;-5.10;99.90;;;-5.23;nan;102017.63;4996300;28;20572;-66
2022/12/18 06:08:50;;;;;;;12.13;6.20;;;-5.10;99.90;;;-5.26;nan;102025.19;5023020;28;20212;-65
2022/12/18 06:11:21;;;;;;;12.30;4.75;;;-5.10;99.90;;;-5.33;nan;102028.50;5023333;28;20283;-65
2022/12/18 06:13:53;;;;;;;9.52;5.47;;;-5.10;99.90;;;-5.27;nan;102031.13;5032329;28;20207;-68
2022/12/18 06:16:24;;;;;;;14.10;5.38;;;-5.10;99.90;;;-5.35;nan;102026.75;5024142;28;20206;-66
2022/12/18 06:18:51;;;;;;;7.78;1.95;;;-5.10;99.90;;;-5.34;nan;102031.88;4995042;28;20204;-67
2022/12/18 06:21:18;;;;;;;6.50;4.25;;;-5.10;99.90;;;-5.19;nan;102037.19;5020986;28;20663;-68
2022/12/18 06:23:45;;;;;;;5.45;3.50;;;-5.10;99.90;;;-5.21;nan;102032.91;5023838;28;20203;-66
2022/12/18 06:26:13;;;;;;;18.35;5.85;;;-5.10;99.90;;;-5.24;nan;102033.75;5020040;28;20207;-67
2022/12/18 06:28:40;;;;;;;4.47;3.45;;;-5.10;99.90;;;-5.19;nan;102046.50;5012907;28;20211;-67
2022/12/18 06:31:08;;;;;;;15.50;6.70;;;-5.00;99.90;;;-5.18;nan;102045.69;5022455;28;20245;-67
2022/12/18 06:33:36;;;;;;;16.42;7.53;;;-5.00;99.90;;;-5.27;nan;102037.91;5020101;28;20263;-68
2022/12/18 06:36:12;;;;;;;21.02;9.13;;;-5.10;99.90;;;-5.43;nan;102049.53;5000613;28;20206;-68
2022/12/18 06:38:42;;;;;;;15.25;7.38;;;-5.10;99.90;;;-5.50;nan;102045.19;5031747;28;20671;-67
2022/12/18 06:41:19;;;;;;;17.25;7.80;;;-5.20;99.90;;;-5.47;nan;102045.22;5016557;28;20234;-66
2022/12/18 06:43:46;;;;;;;13.95;7.05;;;-5.20;99.90;;;-5.55;nan;102046.81;5027020;28;20654;-66
2022/12/18 06:46:13;;;;;;;13.52;6.10;;;-5.20;99.90;;;-5.56;nan;102052.75;5021949;28;20206;-66
2022/12/18 06:48:40;;;;;;;10.60;5.15;;;-5.20;99.90;;;-5.50;nan;102060.47;5013788;28;20219;-65
2022/12/18 06:51:07;;;;;;;17.17;6.72;;;-5.20;99.90;;;-5.55;nan;102072.22;5010827;28;20745;-67
2022/12/18 06:53:34;;;;;;;14.98;6.28;;;-5.20;99.90;;;-5.56;nan;102075.63;5029869;28;20631;-65
2022/12/18 06:56:06;;;;;;;26.38;11.02;;;-5.20;99.90;;;-5.55;nan;102072.22;5018784;28;20203;-66
2022/12/18 06:58:36;;;;;;;1.25;1.05;;;-5.20;99.90;;;-5.55;nan;102064.59;5030736;28;20202;-67
2022/12/18 07:01:05;;;;;;;1.83;1.48;;;-5.20;99.90;;;-5.43;nan;102074.97;5022969;28;20226;-66
2022/12/18 07:03:33;;;;;;;24.27;10.60;;;-5.20;99.90;;;-5.58;nan;102062.03;5017261;28;20231;-66
2022/12/18 07:05:59;;;;;;;17.67;7.07;;;-5.20;99.90;;;-5.81;nan;102076.00;5016958;28;20211;-66
2022/12/18 07:08:28;;;;;;;18.40;8.63;;;-5.30;99.90;;;-5.63;nan;102069.59;5018587;28;20476;-66
2022/12/18 07:10:55;;;;;;;16.10;8.23;;;-5.20;99.90;;;-5.71;nan;102065.19;5021545;28;20289;-67
2022/12/18 07:13:23;;;;;;;9.27;5.03;;;-5.30;99.90;;;-5.68;nan;102070.31;5008958;28;20206;-67
2022/12/18 07:16:25;;;;;;;4.43;1.95;;;-5.30;99.90;;;-5.53;nan;102073.13;5031215;28;20204;-67
2022/12/18 07:18:54;;;;;;;14.27;4.85;;;-5.30;99.90;;;-5.43;nan;102071.59;4987591;28;20288;-67
2022/12/18 07:21:22;;;;;;;20.90;9.05;;;-5.20;99.90;;;-5.51;nan;102066.38;5030858;28;20268;-67
2022/12/18 07:23:51;;;;;;;25.08;11.05;;;-5.20;99.90;;;-5.52;nan;102063.00;4999355;28;20715;-65
2022/12/18 07:26:20;;;;;;;24.98;10.20;;;-5.20;99.90;;;-5.55;nan;102070.56;5020991;28;20240;-66
2022/12/18 07:28:48;;;;;;;21.15;7.65;;;-5.20;99.90;;;-5.41;nan;102070.78;5017469;28;20229;-68
2022/12/18 07:31:20;;;;;;;20.70;9.50;;;-5.20;99.90;;;-5.46;nan;102068.97;5029960;28;20234;-66
2022/12/18 07:33:48;;;;;;;9.93;4.40;;;-5.20;99.90;;;-5.46;nan;102072.38;5033438;28;20316;-67
2022/12/18 07:36:15;;;;;;;11.75;5.03;;;-5.20;99.90;;;-5.54;nan;102069.72;5026080;28;20273;-66
2022/12/18 07:38:42;;;;;;;1.00;1.00;;;-5.10;99.90;;;-5.40;nan;102080.09;5014699;28;20204;-66
2022/12/18 07:41:12;;;;;;;14.10;6.78;;;-5.20;99.90;;;-5.49;nan;102072.31;5025813;28;20235;-68
2022/12/18 07:43:41;;;;;;;1.63;1.52;;;-5.20;99.90;;;-5.31;nan;102077.72;5033000;28;20222;-68
2022/12/18 07:46:10;;;;;;;21.33;9.30;;;-5.10;99.90;;;-5.34;nan;102080.19;5023240;28;20198;-65
2022/12/18 07:48:37;;;;;;;5.68;3.50;;;-5.10;99.90;;;-5.70;nan;102072.84;5032497;28;20495;-66
2022/12/18 07:51:06;;;;;;;11.70;5.97;;;-5.20;99.90;;;-5.60;nan;102082.31;5031562;28;20288;-66
2022/12/18 07:53:35;;;;;;;17.88;8.32;;;-5.20;99.90;;;-5.36;nan;102091.19;5020734;28;20206;-66
2022/12/18 07:56:09;;;;;;;8.80;5.60;;;-5.20;99.90;;;-5.23;nan;102096.50;5033992;28;20556;-66
2022/12/18 07:58:54;;;;;;;16.10;5.82;;;-5.10;99.90;;;-5.13;nan;102095.78;5034244;28;20264;-65
2022/12/18 08:01:20;;;;;;;13.15;5.38;;;-5.00;99.90;;;-5.10;nan;102098.41;5033216;28;20241;-65
2022/12/18 08:03:48;;;;;;;8.73;4.78;;;-4.90;99.90;;;-4.97;nan;102100.28;5017045;28;20268;-65
2022/12/18 08:06:16;;;;;;;26.50;11.02;;;-4.90;99.90;;;-5.13;nan;102092.41;5033395;28;20211;-66
2022/12/18 08:08:43;;;;;;;19.15;8.95;;;-4.80;99.90;;;-5.02;nan;102093.41;5028744;28;20207;-66
2022/12/18 08:11:10;;;;;;;14.23;5.57;;;-4.80;99.90;;;-5.13;nan;102092.41;5015265;28;20236;-66
2022/12/18 08:13:36;;;;;;;15.18;7.43;;;-4.80;99.90;;;-5.00;nan;102099.38;5018255;28;20578;-65
2022/12/18 08:16:06;;;;;;;16.05;7.50;;;-4.80;99.90;;;-4.92;nan;102097.81;5023581;28;20259;-66
2022/12/18 08:18:35;;;;;;;15.30;6.97;;;-4.80;99.90;;;-4.88;nan;102105.53;5030484;28;20618;-66
2022/12/18 08:21:24;;;;;;;11.15;5.20;;;-4.70;99.90;;;-5.12;nan;102122.97;5013618;28;20275;-66
2022/12/18 08:23:52;;;;;;;22.33;7.90;;;-4.70;99.90;;;-4.87;nan;102109.75;5029261;28;20199;-66
2022/12/18 08:26:20;;;;;;;21.30;8.63;;;-4.70;99.90;;;-4.93;nan;102103.72;5013409;28;20265;-66
2022/12/18 08:28:48;;;;;;;21.10;8.00;;;-4.70;99.90;;;-4.82;nan;102103.06;5033948;28;20288;-69
2022/12/18 08:31:15;;;;;;;15.13;6.28;;;-4.60;99.90;;;-4.84;nan;102107.28;5027098;28;20706;-68
2022/12/18 08:33:42;;;;;;;25.30;9.32;;;-4.60;99.90;;;-4.89;nan;102096.16;5029697;28;20210;-66
2022/12/18 08:36:10;;;;;;;19.85;7.90;;;-4.60;99.90;;;-4.88;nan;102086.84;5013931;28;20242;-66
2022/12/18 08:38:37;;;;;;;14.85;7.68;;;-4.60;99.90;;;-4.91;nan;102080.00;5018979;28;20202;-67
2022/12/18 08:41:13;;;;;;;19.02;8.35;;;-4.60;99.90;;;-4.80;nan;102078.47;5032878;28;20233;-67
2022/12/18 08:46:32;;;;;;;9.15;5.40;;;-4.50;99.90;;;-4.39;nan;102078.13;5013113;28;20257;-67
2022/12/18 08:48:59;;;;;;;18.17;7.75;;;-4.40;99.90;;;-4.36;nan;102073.06;5008327;28;20210;-69
2022/12/18 08:51:26;;;;;;;13.77;6.60;;;-4.30;99.90;;;-4.40;nan;102074.72;5045423;22;20669;-66
2022/12/18 08:53:53;;;;;;;16.02;5.70;;;-4.30;99.90;;;-4.06;nan;102066.59;5031720;28;20195;-65
2022/12/18 08:56:20;;;;;;;12.95;5.70;;;-4.10;99.90;;;-3.90;nan;102054.00;5032031;28;20547;-63
2022/12/18 08:58:47;;;;;;;18.20;7.80;;;-4.00;99.90;;;-3.51;nan;102059.44;5030141;28;20227;-64
2022/12/18 09:01:14;;;;;;;10.60;5.00;;;-3.80;99.90;;;-2.93;nan;102048.78;5026856;28;20207;-64
2022/12/18 09:03:41;;;;;;;20.33;8.73;;;-3.40;99.90;;;-2.71;nan;102052.31;5033130;28;20215;-65
2022/12/18 09:06:08;;;;;;;11.98;6.28;;;-3.20;99.90;;;-2.25;nan;102043.09;5032198;28;20224;-65
2022/12/18 09:08:36;;;;;;;18.70;7.93;;;-2.90;99.90;;;-2.01;nan;102041.47;5031907;28;20203;-66
2022/12/18 09:11:04;;;;;;;9.95;5.25;;;-2.80;99.90;;;-1.74;nan;102050.88;5031862;28;20595;-65
2022/12/18 09:13:31;;;;;;;12.98;4.65;;;-2.50;99.90;;;-1.50;nan;102050.88;5031242;28;20221;-65
2022/12/18 09:15:58;;;;;;;19.10;7.70;;;-2.30;99.90;;;-1.41;nan;102045.78;5031144;28;20607;-65
2022/12/18 09:18:25;;;;;;;8.13;3.88;;;-2.20;99.90;;;-1.25;nan;102049.16;5030519;28;20205;-65
2022/12/18 09:20:52;;;;;;;20.42;8.75;;;-2.10;99.90;;;-1.25;nan;102055.13;5031810;28;20671;-63
2022/12/18 09:23:22;;;;;;;15.45;7.88;;;-2.00;99.90;;;-1.25;nan;102067.06;5031630;28;20236;-65
2022/12/18 09:25:49;;;;;;;13.55;6.82;;;-1.90;99.90;;;-1.29;nan;102060.25;5032157;28;20198;-64
2022/12/18 09:28:18;;;;;;;18.13;7.88;;;-1.80;99.90;;;-1.10;nan;102065.34;5029914;28;20213;-65
2022/12/18 09:30:48;;;;;;;20.98;7.88;;;-1.80;99.90;;;-0.97;nan;102069.59;5030773;28;20226;-64
2022/12/18 09:33:17;;;;;;;23.52;9.57;;;-1.70;99.90;;;-0.88;nan;102066.19;5030585;28;20222;-65
2022/12/18 09:35:45;;;;;;;17.83;7.85;;;-1.60;99.90;;;-0.84;nan;102073.00;5030282;28;20205;-65
2022/12/18 09:38:16;;;;;;;21.17;7.63;;;-1.50;99.90;;;-0.81;nan;102085.81;5012392;28;20205;-65
2022/12/18 09:40:50;;;;;;;16.77;8.18;;;-1.50;99.90;;;-0.68;nan;102082.34;5026947;28;20199;-63
2022/12/18 09:43:45;;;;;;;6.53;4.85;;;-1.40;99.90;;;-0.53;nan;102082.28;4995985;28;20699;-63
2022/12/18 09:46:27;;;;;;;18.88;8.38;;;-1.30;99.90;;;-0.55;nan;102101.09;4997294;28;20214;-65
2022/12/18 09:48:59;;;;;;;10.95;6.13;;;-1.30;99.90;;;-0.69;nan;102107.97;5012818;28;20195;-65
2022/12/18 09:51:30;;;;;;;23.42;11.00;;;-1.30;99.90;;;-0.68;nan;102104.56;5006202;28;20250;-65
2022/12/18 09:54:05;;;;;;;16.73;7.25;;;-1.40;99.90;;;-0.88;nan;102112.28;4995123;28;20203;-65
2022/12/18 09:56:40;;;;;;;18.55;7.78;;;-1.40;99.90;;;-1.12;nan;102114.88;4997132;28;20663;-65
2022/12/18 09:59:23;;;;;;;20.42;7.80;;;-1.60;99.90;;;-1.43;nan;102116.59;5012390;28;20206;-65
2022/12/18 10:01:50;;;;;;;13.63;7.43;;;-1.80;99.90;;;-1.62;nan;102102.91;5012073;28;20791;-65
2022/12/18 10:04:18;;;;;;;16.35;7.68;;;-1.90;99.90;;;-1.79;nan;102094.34;5022846;28;20553;-65
2022/12/18 10:07:00;;;;;;;15.13;8.48;;;-2.10;99.90;;;-1.93;nan;102100.31;5029861;28;20477;-65
2022/12/18 10:09:43;;;;;;;22.27;9.57;;;-2.10;99.90;;;-2.09;nan;102094.31;5022723;28;20224;-65
2022/12/18 10:12:49;;;;;;;16.70;7.72;;;-2.30;99.90;;;-2.35;nan;102085.69;5021263;28;20233;-65
2022/12/18 10:15:31;;;;;;;20.50;10.40;;;-2.50;99.90;;;-2.41;nan;102091.63;5029937;28;20205;-64
2022/12/18 10:18:07;;;;;;;31.75;12.55;;;-2.50;99.90;;;-2.60;nan;102100.06;5024868;28;20210;-62
2022/12/18 10:20:56;;;;;;;20.85;8.80;;;-2.50;99.90;;;-2.52;nan;102098.41;5011795;28;20692;-66
2022/12/18 10:23:41;;;;;;;20.40;9.27;;;-2.60;99.90;;;-2.28;nan;102102.78;5012468;28;20744;-64
2022/12/18 10:26:13;;;;;;;27.67;10.65;;;-2.50;99.90;;;-1.92;nan;102090.09;5014101;28;20205;-62
2022/12/18 10:28:41;;;;;;;17.95;8.45;;;-2.30;99.90;;;-1.60;nan;102088.41;5028440;28;20208;-65
2022/12/18 10:31:19;;;;;;;18.35;9.20;;;-2.20;99.90;;;-1.46;nan;102083.31;5028763;28;20733;-65
2022/12/18 10:33:46;;;;;;;9.27;5.60;;;-1.90;99.90;;;-1.15;nan;102077.31;4994436;28;20203;-65
2022/12/18 10:36:13;;;;;;;18.70;9.35;;;-1.80;99.90;;;-1.08;nan;102067.91;5029902;28;20724;-64
2022/12/18 10:38:40;;;;;;;17.60;7.53;;;-1.60;99.90;;;-1.01;nan;102065.34;5029611;28;20204;-61
2022/12/18 10:41:25;;;;;;;10.68;6.10;;;-1.50;99.90;;;-0.88;nan;102059.34;5012252;28;20202;-65
2022/12/18 10:44:17;;;;;;;11.88;6.57;;;-1.40;99.90;;;-0.72;nan;102065.25;5029946;28;20210;-65
2022/12/18 10:46:46;;;;;;;13.90;8.05;;;-1.30;99.90;;;-0.60;nan;102065.25;5029496;28;20206;-64